Time;durP1;ratioP1;P1;durP2;ratioP2;P2;SDS_P1;SDS_P2;PMS_P1;PMS_P2;Temp;Humidity;BMP_temperature;BMP_pressure;BME280_temperature;BME280_humidity;BME280_pressure;Samples;Min_cycle;Max_cycle;Signal;HPM_P1;HPM_P2
2022/03/28 00:01:30;;;;;;;17.87;15.87;;;;;;;8.16;57.25;93785.66;5049205;28;20720;-75
2022/03/28 00:03:56;;;;;;;19.03;16.63;;;;;;;8.17;57.13;93776.84;5048541;28;20233;-75
2022/03/28 00:06:21;;;;;;;18.70;16.40;;;;;;;8.14;56.83;93785.09;5048932;28;20266;-75
2022/03/28 00:08:47;;;;;;;21.83;16.67;;;;;;;7.99;57.23;93780.44;5049147;28;20260;-75
2022/03/28 00:11:13;;;;;;;18.80;16.23;;;;;;;7.99;57.84;93785.66;5048811;28;20194;-75
2022/03/28 00:13:38;;;;;;;23.17;17.77;;;;;;;7.65;58.02;93749.41;5049208;28;20244;-75
2022/03/28 00:16:04;;;;;;;24.97;17.23;;;;;;;7.97;57.37;93772.06;5050002;28;20194;-75
2022/03/28 00:18:29;;;;;;;16.87;15.07;;;;;;;8.08;56.41;93760.84;5047253;28;20225;-75
2022/03/28 00:20:55;;;;;;;18.80;14.93;;;;;;;8.63;54.62;93765.38;5048846;28;20190;-75
2022/03/28 00:23:22;;;;;;;17.63;15.63;;;;;;;8.76;53.88;93754.63;5048902;28;20826;-75
2022/03/28 00:25:47;;;;;;;16.63;14.97;;;;;;;8.95;53.62;93763.75;5049559;28;20208;-75
2022/03/28 00:28:14;;;;;;;18.00;16.00;;;;;;;9.04;53.91;93759.72;5049219;28;20198;-75
2022/03/28 00:30:39;;;;;;;17.90;16.03;;;;;;;8.93;54.06;93739.75;5049390;28;20182;-75
2022/03/28 00:33:05;;;;;;;18.20;15.67;;;;;;;9.03;54.91;93763.31;5049642;28;20202;-75
2022/03/28 00:35:32;;;;;;;17.87;15.83;;;;;;;8.86;55.13;93760.75;5045945;28;20244;-75
2022/03/28 00:37:57;;;;;;;15.37;13.60;;;;;;;8.81;55.64;93763.28;5049771;28;20210;-75
2022/03/28 00:40:24;;;;;;;17.53;15.10;;;;;;;8.71;56.41;93754.56;5048811;28;20268;-75
2022/03/28 00:42:50;;;;;;;17.10;14.20;;;;;;;8.69;56.54;93756.59;5049831;28;20194;-75
2022/03/28 00:45:16;;;;;;;17.07;15.33;;;;;;;8.47;56.54;93745.38;5048587;28;20252;-75
2022/03/28 00:47:42;;;;;;;24.67;15.87;;;;;;;8.63;57.44;93755.75;5049789;28;20190;-75
2022/03/28 00:50:09;;;;;;;16.17;14.43;;;;;;;8.35;58.01;93740.22;5048086;28;20229;-75
2022/03/28 00:52:36;;;;;;;20.17;14.93;;;;;;;8.26;58.54;93753.84;5047247;28;20200;-75
2022/03/28 00:55:03;;;;;;;16.77;15.00;;;;;;;8.17;59.09;93756.81;5048511;28;20222;-75
2022/03/28 00:57:32;;;;;;;16.57;14.87;;;;;;;8.03;59.57;93752.94;5049152;28;20198;-75
2022/03/28 00:59:59;;;;;;;22.17;14.87;;;;;;;8.08;59.67;93747.03;5048042;28;20226;-75
2022/03/28 01:02:25;;;;;;;21.47;16.37;;;;;;;7.82;60.39;93743.22;5052649;28;20190;-75
2022/03/28 01:04:50;;;;;;;20.03;16.60;;;;;;;7.74;60.61;93750.59;5054118;28;20232;-75
2022/03/28 01:07:17;;;;;;;18.60;16.67;;;;;;;7.67;60.72;93742.16;5055552;28;20212;-75
2022/03/28 01:09:43;;;;;;;17.93;16.13;;;;;;;7.82;60.60;93735.44;5053862;28;20226;-74
2022/03/28 01:12:10;;;;;;;17.53;15.47;;;;;;;7.65;61.24;93721.59;5055206;28;20190;-75
2022/03/28 01:14:36;;;;;;;21.07;16.83;;;;;;;7.74;61.14;93735.00;5054854;28;20233;-75
2022/03/28 01:19:54;;;;;;;22.17;17.67;;;;;;;7.60;62.04;93728.50;5055622;28;20297;-75
2022/03/28 01:22:20;;;;;;;19.23;17.33;;;;;;;7.47;61.95;93698.41;5055378;28;20193;-75
2022/03/28 01:24:47;;;;;;;20.53;16.77;;;;;;;7.35;63.02;93734.03;5053432;28;20904;-75
2022/03/28 01:27:15;;;;;;;25.47;18.33;;;;;;;7.66;61.33;93732.78;5054799;28;20225;-75
2022/03/28 01:29:44;;;;;;;21.33;16.67;;;;;;;7.45;62.63;93738.63;5053129;28;20321;-74
2022/03/28 01:32:11;;;;;;;19.10;16.43;;;;;;;7.47;62.40;93737.38;5053144;28;20215;-75
2022/03/28 01:34:37;;;;;;;20.17;17.20;;;;;;;7.47;62.61;93745.16;5054219;28;20233;-75
2022/03/28 01:37:03;;;;;;;22.57;18.00;;;;;;;7.17;63.35;93730.81;5055504;28;20186;-74
2022/03/28 01:39:29;;;;;;;22.77;17.53;;;;;;;7.18;63.42;93740.97;5053724;28;20280;-75
2022/03/28 01:41:54;;;;;;;19.47;17.33;;;;;;;7.04;63.82;93725.88;5054963;28;20193;-75
2022/03/28 01:44:20;;;;;;;23.03;18.27;;;;;;;7.06;63.98;93716.84;5055306;28;20310;-75
2022/03/28 01:46:47;;;;;;;21.70;17.40;;;;;;;6.92;64.40;93725.91;5054903;28;20189;-75
2022/03/28 01:49:15;;;;;;;23.13;16.93;;;;;;;7.07;64.33;93726.22;5054358;28;20247;-75
2022/03/28 01:51:40;;;;;;;34.03;20.10;;;;;;;6.84;64.87;93723.66;5053167;28;20206;-74
2022/03/28 01:54:06;;;;;;;24.47;18.87;;;;;;;6.83;65.35;93726.47;5054707;28;20265;-75
2022/03/28 01:56:36;;;;;;;26.93;19.70;;;;;;;6.88;64.81;93719.56;5055261;28;20177;-75
2022/03/28 01:59:03;;;;;;;22.93;19.33;;;;;;;6.85;64.90;93729.66;5054244;28;20229;-75
2022/03/28 02:01:28;;;;;;;23.57;18.37;;;;;;;6.74;65.55;93717.47;5053991;28;20186;-75
2022/03/28 02:03:54;;;;;;;23.80;18.83;;;;;;;6.47;66.53;93723.09;5054901;28;20256;-75
2022/03/28 02:06:19;;;;;;;27.27;19.53;;;;;;;6.45;66.73;93721.78;5054291;28;20200;-74
2022/03/28 02:08:45;;;;;;;27.40;20.83;;;;;;;6.68;66.18;93728.78;5053577;28;20831;-75
2022/03/28 02:11:10;;;;;;;41.27;24.67;;;;;;;6.39;67.55;93730.47;5055378;28;20202;-75
2022/03/28 02:13:36;;;;;;;34.63;22.57;;;;;;;6.34;67.49;93712.19;5052274;28;20293;-75
2022/03/28 02:16:02;;;;;;;26.43;18.37;;;;;;;6.36;67.25;93720.53;5049890;28;20190;-74
2022/03/28 02:18:27;;;;;;;21.60;16.67;;;;;;;6.38;67.13;93726.28;5049622;28;20225;-75
2022/03/28 02:20:53;;;;;;;18.80;16.17;;;;;;;6.32;66.28;93707.22;5051823;28;20174;-75
2022/03/28 02:23:20;;;;;;;24.37;17.27;;;;;;;6.19;66.93;93719.63;5051267;28;20178;-75
2022/03/28 02:25:45;;;;;;;24.93;16.70;;;;;;;6.17;66.96;93714.66;5050162;28;20186;-75
2022/03/28 02:28:11;;;;;;;29.40;18.27;;;;;;;6.06;67.14;93725.00;5051214;28;20205;-75
2022/03/28 02:30:38;;;;;;;36.60;18.37;;;;;;;6.22;66.88;93729.53;5051873;28;20174;-74
2022/03/28 02:33:04;;;;;;;23.43;16.20;;;;;;;6.37;66.92;93722.91;5041862;28;20217;-74
2022/03/28 02:35:29;;;;;;;17.27;13.50;;;;;;;6.15;67.33;93721.06;5050521;28;20238;-75
2022/03/28 02:37:57;;;;;;;20.33;14.33;;;;;;;6.10;67.60;93716.56;5051299;28;20190;-74
2022/03/28 02:40:23;;;;;;;12.53;11.07;;;;;;;6.12;67.30;93699.00;5051502;28;20232;-75
2022/03/28 02:42:48;;;;;;;11.03;10.23;;;;;;;6.20;67.41;93710.81;5049958;28;20213;-75
2022/03/28 02:45:13;;;;;;;11.53;10.43;;;;;;;6.27;67.14;93716.69;5048551;28;20275;-72
2022/03/28 02:47:39;;;;;;;15.40;11.40;;;;;;;6.11;68.15;93705.19;5051494;28;20240;-72
2022/03/28 02:50:06;;;;;;;11.93;10.60;;;;;;;5.93;67.87;93683.78;5049907;28;20234;-72
2022/03/28 02:52:31;;;;;;;15.40;11.63;;;;;;;6.05;67.90;93697.53;5050455;28;20196;-71
2022/03/28 02:54:57;;;;;;;11.63;10.60;;;;;;;5.78;68.92;93685.94;5050579;28;20249;-72
2022/03/28 02:57:22;;;;;;;12.17;11.23;;;;;;;5.91;68.68;93696.94;5051233;28;20192;-72
2022/03/28 02:59:47;;;;;;;10.03;9.60;;;;;;;5.92;69.10;93729.63;5048051;28;20233;-72
2022/03/28 03:02:13;;;;;;;9.93;9.13;;;;;;;6.14;68.38;93738.44;5049959;28;20225;-72
2022/03/28 03:04:38;;;;;;;9.10;8.50;;;;;;;6.01;68.42;93733.47;5050394;28;20226;-72
2022/03/28 03:07:04;;;;;;;12.33;11.10;;;;;;;5.70;69.36;93694.03;5050154;28;20197;-72
2022/03/28 03:09:30;;;;;;;12.70;9.57;;;;;;;5.70;68.84;93694.03;5050860;28;20217;-71
2022/03/28 03:11:56;;;;;;;8.73;8.33;;;;;;;5.96;68.79;93730.75;5051214;28;20262;-72
2022/03/28 03:14:23;;;;;;;8.63;8.33;;;;;;;5.90;68.12;93736.03;5049573;28;20230;-72
2022/03/28 03:16:50;;;;;;;9.50;8.97;;;;;;;5.78;69.01;93728.19;5050652;28;20946;-72
2022/03/28 03:19:15;;;;;;;9.60;8.93;;;;;;;5.86;69.01;93733.09;5050910;28;20229;-72
2022/03/28 03:21:42;;;;;;;8.50;8.17;;;;;;;5.72;69.48;93738.66;5050379;28;20186;-72
2022/03/28 03:24:08;;;;;;;10.03;9.53;;;;;;;5.72;69.21;93734.28;5046879;28;20298;-71
2022/03/28 03:26:33;;;;;;;10.27;9.67;;;;;;;5.74;69.58;93736.63;5049907;28;20198;-71
2022/03/28 03:28:59;;;;;;;10.17;9.47;;;;;;;5.53;69.86;93743.09;5047416;28;21014;-71
2022/03/28 03:31:25;;;;;;;9.70;9.03;;;;;;;5.54;70.08;93746.50;5049715;28;20196;-71
2022/03/28 03:33:51;;;;;;;8.67;8.27;;;;;;;5.58;69.86;93737.25;5049922;28;20256;-72
2022/03/28 03:36:17;;;;;;;10.30;9.60;;;;;;;5.41;69.57;93731.13;5049889;28;20213;-72
2022/03/28 03:38:43;;;;;;;10.80;9.97;;;;;;;5.49;69.72;93754.13;5050125;28;20321;-71
2022/03/28 03:41:08;;;;;;;10.07;9.47;;;;;;;5.20;69.84;93687.59;5047977;28;20761;-68
2022/03/28 03:43:34;;;;;;;10.23;9.47;;;;;;;5.08;70.59;93684.16;5048466;28;20237;-72
2022/03/28 03:45:59;;;;;;;10.40;9.70;;;;;;;5.36;70.68;93734.38;5048485;28;20304;-74
2022/03/28 03:48:26;;;;;;;9.17;8.70;;;;;;;5.24;70.73;93724.97;5049062;28;20200;-74
2022/03/28 03:50:53;;;;;;;9.57;9.10;;;;;;;5.35;70.01;93732.00;5049587;28;20182;-74
2022/03/28 03:53:19;;;;;;;9.63;9.23;;;;;;;5.41;70.46;93746.66;5048491;28;20182;-73
2022/03/28 03:55:46;;;;;;;9.67;9.17;;;;;;;5.29;70.38;93749.22;5048099;28;20186;-75
2022/03/28 03:58:11;;;;;;;9.97;9.23;;;;;;;5.18;70.66;93749.13;5042121;28;20248;-75
2022/03/28 04:00:37;;;;;;;9.13;8.77;;;;;;;5.02;71.79;93749.72;5048789;28;20209;-74
2022/03/28 04:03:03;;;;;;;9.57;8.67;;;;;;;5.30;71.06;93753.38;5049394;28;20225;-76
2022/03/28 04:05:29;;;;;;;8.27;7.97;;;;;;;5.10;70.94;93749.44;5048345;28;20785;-75
2022/03/28 04:07:55;;;;;;;9.07;8.77;;;;;;;5.07;71.32;93752.44;5049395;28;20261;-74
2022/03/28 04:10:22;;;;;;;9.53;9.23;;;;;;;5.13;70.42;93754.16;5048335;28;20221;-77
2022/03/28 04:12:47;;;;;;;8.77;8.47;;;;;;;5.06;69.86;93727.59;5046391;28;20187;-76
2022/03/28 04:15:13;;;;;;;9.73;9.27;;;;;;;5.23;69.55;93760.41;5044138;28;20259;-72
2022/03/28 04:17:45;;;;;;;9.57;9.17;;;;;;;5.18;70.29;93762.09;5047970;28;20300;-71
2022/03/28 04:20:13;;;;;;;8.80;8.50;;;;;;;5.21;70.08;93769.41;5047933;28;20218;-72
2022/03/28 04:22:42;;;;;;;8.87;8.57;;;;;;;5.26;70.25;93765.16;5048911;28;20265;-72
2022/03/28 04:25:09;;;;;;;9.07;8.60;;;;;;;5.37;69.56;93767.00;5046521;28;20226;-72
2022/03/28 04:27:36;;;;;;;12.07;11.13;;;;;;;5.37;69.71;93766.22;5046308;28;20198;-72
2022/03/28 04:30:07;;;;;;;8.43;8.03;;;;;;;5.35;69.10;93763.88;5046858;28;20221;-73
2022/03/28 04:32:33;;;;;;;9.43;9.10;;;;;;;5.37;69.86;93761.81;5046819;28;20748;-72
2022/03/28 04:34:59;;;;;;;8.23;7.93;;;;;;;5.54;69.90;93767.22;5047315;28;20293;-72
2022/03/28 04:37:24;;;;;;;8.87;8.47;;;;;;;5.60;68.51;93761.94;5047926;28;20210;-72
2022/03/28 04:39:50;;;;;;;9.83;9.43;;;;;;;5.70;68.61;93772.56;5046744;28;20222;-73
2022/03/28 04:42:15;;;;;;;8.40;8.10;;;;;;;5.55;69.17;93750.66;5039305;28;20202;-73
2022/03/28 04:44:41;;;;;;;9.20;8.90;;;;;;;5.65;68.98;93753.50;5044488;28;20221;-73
2022/03/28 04:47:07;;;;;;;8.50;8.20;;;;;;;5.54;69.19;93741.31;5048377;28;20216;-73
2022/03/28 04:49:32;;;;;;;10.33;9.60;;;;;;;5.67;68.73;93756.66;5046362;28;20233;-73
2022/03/28 04:51:58;;;;;;;8.73;8.43;;;;;;;5.92;68.33;93754.72;5048102;28;20189;-73
2022/03/28 04:54:23;;;;;;;9.80;9.30;;;;;;;5.92;68.29;93728.81;5046836;28;20240;-73
2022/03/28 04:56:49;;;;;;;8.97;8.47;;;;;;;6.09;67.92;93745.31;5046691;28;20262;-73
2022/03/28 04:59:14;;;;;;;10.60;10.10;;;;;;;6.28;67.17;93742.41;5046207;28;20225;-73
2022/03/28 05:01:40;;;;;;;9.20;8.90;;;;;;;6.25;67.33;93731.69;5047131;28;20209;-75
2022/03/28 05:04:05;;;;;;;10.23;9.77;;;;;;;6.53;67.08;93744.78;5045017;28;20251;-73
2022/03/28 05:06:31;;;;;;;9.70;9.23;;;;;;;6.57;66.93;93751.09;5044903;28;20209;-74
2022/03/28 05:08:56;;;;;;;7.83;7.63;;;;;;;6.67;66.66;93751.31;5044378;28;20234;-73
2022/03/28 05:11:22;;;;;;;10.43;9.93;;;;;;;6.75;66.39;93748.38;5045661;28;20189;-73
2022/03/28 05:13:49;;;;;;;11.03;9.97;;;;;;;6.73;66.03;93728.84;5043494;28;20260;-73
2022/03/28 05:16:15;;;;;;;9.63;9.23;;;;;;;7.01;65.81;93758.28;5046830;28;20269;-74
2022/03/28 05:18:41;;;;;;;8.80;8.40;;;;;;;7.20;65.45;93759.72;5047988;28;20229;-72
2022/03/28 05:21:06;;;;;;;9.20;8.60;;;;;;;7.45;64.11;93764.63;5047874;28;20192;-73
2022/03/28 05:23:32;;;;;;;9.37;8.87;;;;;;;7.48;62.16;93762.34;5047044;28;20233;-73
2022/03/28 05:25:58;;;;;;;10.80;10.17;;;;;;;7.59;61.79;93769.31;5046843;28;20197;-74
2022/03/28 05:28:23;;;;;;;10.33;9.63;;;;;;;7.48;61.40;93777.16;5046963;28;20258;-73
2022/03/28 05:30:49;;;;;;;10.90;9.87;;;;;;;7.41;61.60;93772.06;5047141;28;20189;-73
2022/03/28 05:33:14;;;;;;;9.97;9.43;;;;;;;7.28;62.34;93769.75;5047021;28;20701;-73
2022/03/28 05:35:43;;;;;;;10.23;9.60;;;;;;;7.16;62.88;93753.38;5048019;28;20190;-73
2022/03/28 05:38:09;;;;;;;10.47;9.87;;;;;;;7.33;62.22;93769.06;5045171;28;20194;-73
2022/03/28 05:40:34;;;;;;;9.83;9.43;;;;;;;7.27;62.55;93765.56;5047205;28;20232;-73
2022/03/28 05:43:01;;;;;;;10.83;10.23;;;;;;;7.23;61.77;93737.69;5044880;28;20178;-73
2022/03/28 05:45:27;;;;;;;10.20;9.57;;;;;;;7.38;61.92;93764.75;5046812;28;20233;-73
2022/03/28 05:47:52;;;;;;;11.20;10.27;;;;;;;7.18;62.85;93772.13;5047639;28;20190;-73
2022/03/28 05:50:18;;;;;;;9.67;9.17;;;;;;;7.42;61.53;93778.88;5046727;28;20222;-73
2022/03/28 05:52:43;;;;;;;10.10;9.60;;;;;;;7.44;60.92;93771.59;5049376;28;20217;-74
2022/03/28 05:55:09;;;;;;;11.33;10.43;;;;;;;7.16;62.77;93763.78;5051268;28;20221;-73
2022/03/28 05:57:34;;;;;;;10.40;9.57;;;;;;;7.35;62.61;93774.78;5050417;28;20190;-74
2022/03/28 06:00:00;;;;;;;11.03;10.43;;;;;;;7.50;62.41;93770.69;5048610;28;20269;-73
2022/03/28 06:02:25;;;;;;;12.83;11.87;;;;;;;7.49;62.59;93753.53;5051770;28;20186;-73
2022/03/28 06:04:51;;;;;;;9.50;9.03;;;;;;;8.08;61.32;93768.63;5050170;28;21298;-73
2022/03/28 06:07:17;;;;;;;9.83;9.23;;;;;;;8.40;59.72;93760.31;5050702;28;20213;-72
2022/03/28 06:09:43;;;;;;;12.30;11.53;;;;;;;8.48;59.77;93778.16;5050620;28;20297;-76
2022/03/28 06:12:10;;;;;;;10.57;9.87;;;;;;;8.63;58.83;93766.16;5048558;28;20314;-75
2022/03/28 06:14:35;;;;;;;11.23;10.70;;;;;;;8.63;59.22;93773.97;5050598;28;20237;-79
2022/03/28 06:17:01;;;;;;;9.43;8.93;;;;;;;8.48;58.90;93746.94;5046725;28;20174;-75
2022/03/28 06:19:27;;;;;;;11.90;11.40;;;;;;;8.71;58.40;93764.97;5050077;28;20261;-76
2022/03/28 06:21:52;;;;;;;8.87;8.47;;;;;;;9.13;56.66;93782.50;5047092;28;20250;-75
2022/03/28 06:24:18;;;;;;;10.20;9.33;;;;;;;9.48;56.29;93792.56;5048973;28;20800;-76
2022/03/28 06:26:43;;;;;;;12.63;11.47;;;;;;;9.28;57.04;93781.91;5048069;28;20202;-75
2022/03/28 06:29:10;;;;;;;11.10;10.50;;;;;;;8.94;57.98;93764.78;5048866;28;20237;-76
2022/03/28 06:31:36;;;;;;;9.57;8.87;;;;;;;9.08;58.19;93785.03;5049656;28;20198;-71
2022/03/28 06:34:02;;;;;;;10.10;9.60;;;;;;;9.30;56.92;93785.06;5050428;28;20241;-73
2022/03/28 06:36:31;;;;;;;10.40;9.70;;;;;;;9.46;56.62;93786.81;5049513;28;20223;-72
2022/03/28 06:38:57;;;;;;;10.43;9.83;;;;;;;9.72;56.10;93792.09;5045332;28;20237;-72
2022/03/28 06:41:23;;;;;;;9.83;9.33;;;;;;;9.51;56.77;93779.03;5047982;28;20209;-73
2022/03/28 06:43:48;;;;;;;9.03;8.60;;;;;;;9.90;55.03;93793.56;5048412;28;20218;-72
2022/03/28 06:46:14;;;;;;;10.00;9.47;;;;;;;9.83;55.44;93798.19;5049653;28;20279;-71
2022/03/28 06:48:40;;;;;;;8.83;8.23;;;;;;;10.11;55.20;93807.66;5049808;28;20280;-72
2022/03/28 06:51:06;;;;;;;16.07;8.37;;;;;;;10.17;54.13;93794.41;5049654;28;20186;-71
2022/03/28 06:53:32;;;;;;;10.37;9.70;;;;;;;10.13;54.05;93790.72;5049630;28;20226;-72
2022/03/28 06:55:58;;;;;;;9.90;9.30;;;;;;;10.01;54.09;93782.22;5049749;28;20274;-71
2022/03/28 06:58:24;;;;;;;11.33;10.33;;;;;;;10.23;54.18;93782.97;5047943;28;20350;-72
2022/03/28 07:00:50;;;;;;;9.97;9.37;;;;;;;10.22;53.92;93776.19;5049738;28;20194;-71
2022/03/28 07:03:16;;;;;;;9.73;9.27;;;;;;;10.38;54.17;93788.31;5050406;28;20198;-74
2022/03/28 07:05:42;;;;;;;10.10;9.60;;;;;;;10.45;52.88;93791.53;5049301;28;20204;-72
2022/03/28 07:08:08;;;;;;;11.70;11.00;;;;;;;10.39;52.90;93797.75;5048536;28;20206;-72
2022/03/28 07:10:33;;;;;;;10.57;9.77;;;;;;;10.54;53.57;93795.25;5049030;28;20194;-73
2022/03/28 07:12:59;;;;;;;9.87;9.33;;;;;;;10.87;53.17;93794.22;5049474;28;20189;-74
2022/03/28 07:15:26;;;;;;;9.10;8.50;;;;;;;10.79;52.43;93792.06;5049545;28;20236;-73
2022/03/28 07:17:57;;;;;;;10.40;9.80;;;;;;;10.95;52.49;93791.13;5048929;28;20225;-76
2022/03/28 07:20:28;;;;;;;10.73;9.60;;;;;;;10.95;51.92;93797.16;5048851;28;20250;-77
2022/03/28 07:22:55;;;;;;;10.27;9.27;;;;;;;11.21;51.04;93805.94;5049796;28;20175;-75
2022/03/28 07:25:22;;;;;;;9.60;9.20;;;;;;;11.36;51.15;93809.41;5048550;28;20285;-74
2022/03/28 07:27:47;;;;;;;11.57;10.67;;;;;;;11.43;50.20;93813.63;5049899;28;20189;-74
2022/03/28 07:30:14;;;;;;;10.27;9.70;;;;;;;11.26;50.70;93814.59;5049609;28;20234;-74
2022/03/28 07:32:40;;;;;;;9.97;9.47;;;;;;;11.24;51.50;93803.59;5047857;28;20266;-74
2022/03/28 07:35:07;;;;;;;10.03;9.50;;;;;;;11.51;50.47;93815.75;5048203;28;20246;-74
2022/03/28 07:37:34;;;;;;;8.60;8.10;;;;;;;11.67;51.04;93814.81;5049780;28;20240;-74
2022/03/28 07:40:01;;;;;;;9.43;8.93;;;;;;;11.90;50.33;93807.34;5047895;28;20225;-74
2022/03/28 07:42:26;;;;;;;10.00;9.47;;;;;;;12.00;49.88;93809.19;5047629;28;20246;-73
2022/03/28 07:44:55;;;;;;;9.57;8.93;;;;;;;11.81;49.26;93814.13;5046639;28;20226;-74
2022/03/28 07:47:25;;;;;;;10.40;9.80;;;;;;;11.83;49.71;93816.47;5046817;28;20266;-74
2022/03/28 07:49:52;;;;;;;10.37;9.67;;;;;;;11.72;50.26;93817.47;5045569;28;20229;-74
2022/03/28 07:52:18;;;;;;;9.63;9.13;;;;;;;11.69;50.35;93808.28;5048695;28;20194;-74
2022/03/28 07:54:44;;;;;;;10.70;10.00;;;;;;;11.75;49.97;93811.72;5047067;28;20254;-74
2022/03/28 07:57:09;;;;;;;9.83;9.20;;;;;;;11.98;50.18;93811.28;5048004;28;20193;-73
2022/03/28 07:59:34;;;;;;;10.53;9.83;;;;;;;12.18;49.48;93812.13;5048305;28;20243;-74
2022/03/28 08:02:01;;;;;;;10.50;10.00;;;;;;;12.10;49.37;93804.78;5048595;28;20203;-72
2022/03/28 08:04:26;;;;;;;10.17;9.57;;;;;;;12.04;49.05;93803.19;5048337;28;20233;-73
2022/03/28 08:06:51;;;;;;;10.23;9.33;;;;;;;12.49;47.94;93799.88;5048024;28;20193;-74
2022/03/28 08:09:17;;;;;;;9.90;9.40;;;;;;;12.51;48.11;93800.41;5048335;28;20233;-74
2022/03/28 08:11:43;;;;;;;10.40;9.50;;;;;;;12.53;48.25;93799.06;5046909;28;20214;-74
2022/03/28 08:14:08;;;;;;;9.77;8.97;;;;;;;12.59;47.99;93802.50;5047217;28;20219;-73
2022/03/28 08:16:34;;;;;;;9.43;8.80;;;;;;;12.54;47.75;93790.19;5048533;28;20236;-73
2022/03/28 08:19:00;;;;;;;10.10;9.40;;;;;;;12.58;48.11;93785.19;5047886;28;21686;-73
2022/03/28 08:21:25;;;;;;;9.87;9.30;;;;;;;12.57;47.80;93796.72;5049030;28;20609;-72
2022/03/28 08:23:51;;;;;;;8.97;8.37;;;;;;;12.76;48.15;93784.69;5048459;28;20963;-74
2022/03/28 08:26:17;;;;;;;10.83;10.10;;;;;;;12.87;47.81;93784.41;5047518;28;20183;-73
2022/03/28 08:28:43;;;;;;;9.50;9.03;;;;;;;13.05;46.75;93780.50;5048012;28;20238;-73
2022/03/28 08:31:08;;;;;;;10.07;9.27;;;;;;;13.04;47.06;93778.13;5046444;28;20170;-74
2022/03/28 08:33:34;;;;;;;10.00;9.30;;;;;;;12.98;48.29;93769.44;5046119;28;20316;-73
2022/03/28 08:35:59;;;;;;;11.10;10.27;;;;;;;13.10;46.41;93751.66;5046932;28;20186;-74
2022/03/28 08:38:25;;;;;;;9.60;9.00;;;;;;;13.31;45.64;93773.38;5047076;28;20219;-74
2022/03/28 08:40:51;;;;;;;10.97;10.03;;;;;;;13.32;46.01;93769.69;5045573;28;20213;-74
2022/03/28 08:43:22;;;;;;;10.30;9.60;;;;;;;12.98;46.01;93729.34;5045546;28;20228;-75
2022/03/28 08:45:50;;;;;;;10.20;9.60;;;;;;;13.18;46.55;93752.94;5047008;28;20191;-73
2022/03/28 08:48:16;;;;;;;10.53;9.93;;;;;;;13.03;46.25;93766.09;5046508;28;20262;-73
2022/03/28 08:50:46;;;;;;;10.80;9.87;;;;;;;13.12;46.85;93756.63;5047873;28;20252;-73
2022/03/28 08:53:13;;;;;;;10.30;9.50;;;;;;;12.93;47.06;93735.41;5047982;28;20197;-74
2022/03/28 08:55:41;;;;;;;10.67;9.83;;;;;;;13.11;46.84;93752.41;5038543;28;20200;-74
2022/03/28 08:58:08;;;;;;;10.47;9.77;;;;;;;13.11;46.47;93755.03;5045216;28;20202;-75
2022/03/28 09:00:33;;;;;;;9.90;9.30;;;;;;;13.28;46.77;93745.81;5045614;28;20193;-75
2022/03/28 09:02:59;;;;;;;9.60;8.93;;;;;;;13.21;46.50;93741.91;5047747;28;20194;-75
2022/03/28 09:05:33;;;;;;;11.23;10.43;;;;;;;13.46;45.90;93740.00;5046528;28;20218;-75
2022/03/28 09:08:00;;;;;;;10.70;10.00;;;;;;;13.47;45.37;93740.78;5048271;28;20193;-75
2022/03/28 09:10:28;;;;;;;11.37;10.57;;;;;;;13.41;45.77;93737.41;5046514;28;20221;-75
2022/03/28 09:13:08;;;;;;;11.70;10.80;;;;;;;13.35;46.46;93733.22;5046676;28;20281;-75
2022/03/28 09:15:55;;;;;;;10.77;10.07;;;;;;;13.58;45.62;93716.88;5027092;28;20198;-75
2022/03/28 09:21:16;;;;;;;10.03;9.47;;;;;;;13.79;45.11;93722.81;5048256;28;20229;-74
2022/03/28 09:23:46;;;;;;;10.63;9.83;;;;;;;14.19;45.33;93723.34;5048724;28;20236;-75
2022/03/28 09:26:20;;;;;;;10.47;9.77;;;;;;;14.44;43.91;93715.31;5049378;28;20220;-75
2022/03/28 09:28:50;;;;;;;11.50;10.70;;;;;;;14.53;42.93;93718.16;5049651;28;20252;-75
2022/03/28 09:31:15;;;;;;;10.37;9.73;;;;;;;14.61;43.31;93714.13;5050330;28;20190;-75
2022/03/28 09:33:59;;;;;;;10.17;9.37;;;;;;;14.75;42.99;93709.81;5050291;28;20272;-75
2022/03/28 09:36:34;;;;;;;10.23;9.53;;;;;;;14.70;43.56;93707.22;5048304;28;20178;-74
2022/03/28 09:39:00;;;;;;;10.90;10.10;;;;;;;14.64;43.26;93695.19;5050759;28;20236;-75
2022/03/28 09:41:28;;;;;;;10.47;9.70;;;;;;;15.11;42.31;93703.94;5049348;28;21835;-75
2022/03/28 09:43:57;;;;;;;9.93;9.27;;;;;;;15.11;41.48;93692.63;5051177;28;20226;-74
2022/03/28 09:46:27;;;;;;;11.37;10.43;;;;;;;15.11;41.91;93693.41;5042729;28;20269;-75
2022/03/28 09:48:53;;;;;;;10.80;9.57;;;;;;;15.04;42.00;93689.53;5052012;28;20236;-75
2022/03/28 09:51:21;;;;;;;10.57;9.63;;;;;;;14.75;42.95;93681.69;5050706;28;20204;-75
2022/03/28 09:53:48;;;;;;;11.00;10.20;;;;;;;14.43;44.67;93673.53;5049197;28;20234;-74
2022/03/28 09:56:14;;;;;;;10.83;10.03;;;;;;;14.57;43.72;93671.06;5050379;28;20673;-73
2022/03/28 09:58:48;;;;;;;10.67;10.07;;;;;;;14.76;42.55;93672.72;5050992;28;20229;-75
2022/03/28 10:01:38;;;;;;;10.37;9.57;;;;;;;14.29;42.88;93656.84;5051100;28;20204;-74
2022/03/28 10:04:09;;;;;;;10.17;9.47;;;;;;;14.89;42.14;93671.28;5049742;28;20218;-74
2022/03/28 10:06:39;;;;;;;9.10;8.60;;;;;;;15.36;40.76;93661.53;5051712;28;20186;-75
2022/03/28 10:09:06;;;;;;;10.60;10.00;;;;;;;15.46;40.91;93660.66;5046856;28;20242;-75
2022/03/28 10:11:32;;;;;;;9.83;9.13;;;;;;;15.63;40.67;93656.50;5050775;28;20229;-75
2022/03/28 10:13:58;;;;;;;10.37;9.57;;;;;;;15.46;40.64;93647.50;5049171;28;20237;-75
2022/03/28 10:16:24;;;;;;;9.67;9.07;;;;;;;15.57;40.31;93643.69;5047337;28;20198;-76
2022/03/28 10:18:50;;;;;;;11.00;10.30;;;;;;;15.70;40.63;93643.00;5048708;28;20248;-75
2022/03/28 10:21:15;;;;;;;9.73;9.20;;;;;;;15.65;39.80;93645.69;5048416;28;20190;-75
2022/03/28 10:24:06;;;;;;;9.57;8.87;;;;;;;15.50;41.99;93632.72;5049498;28;20228;-75
2022/03/28 10:26:34;;;;;;;9.67;8.97;;;;;;;15.79;40.22;93625.47;5049429;28;20190;-74
2022/03/28 10:29:12;;;;;;;9.03;8.47;;;;;;;15.98;39.38;93618.34;5049211;28;20236;-75
2022/03/28 10:32:13;;;;;;;10.20;9.60;;;;;;;16.22;39.39;93616.38;5049120;28;20221;-75
2022/03/28 10:34:40;;;;;;;10.43;9.83;;;;;;;16.31;38.94;93619.91;5041541;28;20293;-75
2022/03/28 10:37:24;;;;;;;9.63;9.13;;;;;;;16.61;38.72;93605.47;5049442;28;20902;-74
2022/03/28 10:39:50;;;;;;;11.27;10.53;;;;;;;16.72;38.43;93602.38;5048197;28;20229;-74
2022/03/28 10:42:24;;;;;;;9.37;8.77;;;;;;;16.69;38.44;93595.03;5045042;28;20232;-74
2022/03/28 10:45:04;;;;;;;9.93;9.23;;;;;;;16.85;38.10;93590.28;5049418;28;20230;-75
2022/03/28 10:47:58;;;;;;;9.33;8.63;;;;;;;16.74;37.82;93584.41;5050269;28;20194;-74
2022/03/28 10:50:36;;;;;;;9.10;8.63;;;;;;;16.81;36.93;93590.06;5046835;28;20302;-73
2022/03/28 10:53:20;;;;;;;10.20;9.50;;;;;;;16.64;36.77;93581.19;5049908;28;20178;-75
2022/03/28 10:55:50;;;;;;;9.53;8.87;;;;;;;16.67;37.59;93581.38;5042184;28;20210;-74
2022/03/28 10:58:23;;;;;;;9.90;9.13;;;;;;;16.70;37.86;93585.28;5049501;28;20194;-74
2022/03/28 11:01:07;;;;;;;9.77;9.07;;;;;;;17.06;37.35;93575.59;5049937;28;20186;-74
2022/03/28 11:03:41;;;;;;;10.77;9.83;;;;;;;16.98;38.28;93579.72;5046800;28;20230;-73
2022/03/28 11:06:07;;;;;;;10.07;9.37;;;;;;;17.31;37.08;93572.44;5049067;28;20205;-74
2022/03/28 11:08:38;;;;;;;10.10;9.27;;;;;;;17.41;36.69;93573.03;5047576;28;20238;-74
2022/03/28 11:11:22;;;;;;;10.40;9.50;;;;;;;17.51;36.29;93577.34;5049123;28;20204;-74
2022/03/28 11:14:04;;;;;;;10.27;9.60;;;;;;;17.53;35.58;93570.69;5048127;28;20233;-73
2022/03/28 11:16:51;;;;;;;11.10;10.00;;;;;;;17.68;36.07;93561.66;5050323;28;20197;-74
2022/03/28 11:19:29;;;;;;;10.63;9.73;;;;;;;17.29;37.25;93554.28;5048075;28;20269;-73
2022/03/28 11:22:04;;;;;;;10.80;10.10;;;;;;;17.85;35.53;93555.72;5046542;28;20194;-73
2022/03/28 11:24:45;;;;;;;9.63;8.83;;;;;;;17.67;35.96;93548.72;5046309;28;20264;-74
2022/03/28 11:27:11;;;;;;;12.20;11.23;;;;;;;17.54;35.58;93540.56;5048601;28;20201;-74
2022/03/28 11:29:37;;;;;;;10.20;9.53;;;;;;;16.97;36.90;93527.25;5047667;28;20256;-74
2022/03/28 11:32:17;;;;;;;10.70;9.90;;;;;;;17.58;36.55;93543.38;5047777;28;20288;-74
2022/03/28 11:34:51;;;;;;;10.50;9.70;;;;;;;17.50;35.62;93536.97;5048401;28;20218;-74
2022/03/28 11:37:19;;;;;;;10.37;9.57;;;;;;;17.48;35.34;93536.47;5048667;28;20194;-74